sensor_id;sensor_type;location;lat;lon;timestamp;P1;durP1;ratioP1;P2;durP2;ratioP2
6485;SDS011;3276;48.490;9.222;2022-07-01T00:00:14;3.10;;;1.40;;
6485;SDS011;3276;48.490;9.222;2022-07-01T00:02:39;2.20;;;1.70;;
6485;SDS011;3276;48.490;9.222;2022-07-01T00:05:05;2.80;;;1.60;;
6485;SDS011;3276;48.490;9.222;2022-07-01T00:07:31;1.90;;;1.20;;
6485;SDS011;3276;48.490;9.222;2022-07-01T00:09:57;2.30;;;1.33;;
6485;SDS011;3276;48.490;9.222;2022-07-01T00:12:22;2.30;;;1.27;;
6485;SDS011;3276;48.490;9.222;2022-07-01T00:14:48;3.13;;;1.03;;
6485;SDS011;3276;48.490;9.222;2022-07-01T00:17:14;3.73;;;1.83;;
6485;SDS011;3276;48.490;9.222;2022-07-01T00:19:39;2.13;;;1.27;;
6485;SDS011;3276;48.490;9.222;2022-07-01T00:22:05;3.77;;;2.17;;
6485;SDS011;3276;48.490;9.222;2022-07-01T00:24:30;2.40;;;1.97;;
6485;SDS011;3276;48.490;9.222;2022-07-01T00:26:56;2.93;;;1.67;;
6485;SDS011;3276;48.490;9.222;2022-07-01T00:29:21;2.27;;;1.50;;
6485;SDS011;3276;48.490;9.222;2022-07-01T00:31:47;2.70;;;1.07;;
6485;SDS011;3276;48.490;9.222;2022-07-01T00:34:12;2.40;;;1.50;;
6485;SDS011;3276;48.490;9.222;2022-07-01T00:36:38;2.17;;;1.53;;
6485;SDS011;3276;48.490;9.222;2022-07-01T00:39:03;1.70;;;1.03;;
6485;SDS011;3276;48.490;9.222;2022-07-01T00:41:29;2.03;;;1.07;;
6485;SDS011;3276;48.490;9.222;2022-07-01T00:43:55;3.53;;;1.43;;
6485;SDS011;3276;48.490;9.222;2022-07-01T00:46:22;1.83;;;1.20;;
6485;SDS011;3276;48.490;9.222;2022-07-01T00:48:50;1.97;;;1.30;;
6485;SDS011;3276;48.490;9.222;2022-07-01T00:51:20;1.67;;;1.20;;
6485;SDS011;3276;48.490;9.222;2022-07-01T00:53:46;2.30;;;1.53;;
6485;SDS011;3276;48.490;9.222;2022-07-01T00:56:12;2.07;;;1.20;;
6485;SDS011;3276;48.490;9.222;2022-07-01T00:58:39;1.60;;;1.03;;
6485;SDS011;3276;48.490;9.222;2022-07-01T01:01:05;2.10;;;0.90;;
6485;SDS011;3276;48.490;9.222;2022-07-01T01:03:30;2.80;;;0.90;;
6485;SDS011;3276;48.490;9.222;2022-07-01T01:05:57;2.03;;;1.20;;
6485;SDS011;3276;48.490;9.222;2022-07-01T01:08:22;2.07;;;1.27;;
6485;SDS011;3276;48.490;9.222;2022-07-01T01:10:49;2.00;;;1.40;;
6485;SDS011;3276;48.490;9.222;2022-07-01T01:13:15;2.07;;;1.07;;
6485;SDS011;3276;48.490;9.222;2022-07-01T01:15:40;3.00;;;1.33;;
6485;SDS011;3276;48.490;9.222;2022-07-01T01:18:06;1.90;;;1.17;;
6485;SDS011;3276;48.490;9.222;2022-07-01T01:20:32;1.50;;;0.80;;
6485;SDS011;3276;48.490;9.222;2022-07-01T01:22:59;2.13;;;1.10;;
6485;SDS011;3276;48.490;9.222;2022-07-01T01:25:26;1.50;;;0.80;;
6485;SDS011;3276;48.490;9.222;2022-07-01T01:27:52;1.83;;;1.13;;
6485;SDS011;3276;48.490;9.222;2022-07-01T01:30:17;3.10;;;1.60;;
6485;SDS011;3276;48.490;9.222;2022-07-01T01:32:43;1.60;;;1.03;;
6485;SDS011;3276;48.490;9.222;2022-07-01T01:35:09;2.10;;;1.10;;
6485;SDS011;3276;48.490;9.222;2022-07-01T01:37:35;5.30;;;1.53;;
6485;SDS011;3276;48.490;9.222;2022-07-01T01:40:01;2.50;;;1.50;;
6485;SDS011;3276;48.490;9.222;2022-07-01T01:42:27;2.07;;;1.03;;
6485;SDS011;3276;48.490;9.222;2022-07-01T01:44:53;2.60;;;1.40;;
6485;SDS011;3276;48.490;9.222;2022-07-01T01:47:19;2.83;;;1.00;;
6485;SDS011;3276;48.490;9.222;2022-07-01T01:49:45;1.83;;;1.17;;
6485;SDS011;3276;48.490;9.222;2022-07-01T01:52:11;2.17;;;1.17;;
6485;SDS011;3276;48.490;9.222;2022-07-01T01:54:36;2.53;;;1.17;;
6485;SDS011;3276;48.490;9.222;2022-07-01T01:57:05;1.80;;;1.20;;
6485;SDS011;3276;48.490;9.222;2022-07-01T01:59:31;1.60;;;0.90;;
6485;SDS011;3276;48.490;9.222;2022-07-01T02:01:56;7.73;;;1.03;;
6485;SDS011;3276;48.490;9.222;2022-07-01T02:04:22;1.50;;;0.80;;
6485;SDS011;3276;48.490;9.222;2022-07-01T02:06:48;1.90;;;0.80;;
6485;SDS011;3276;48.490;9.222;2022-07-01T02:09:15;2.77;;;0.97;;
6485;SDS011;3276;48.490;9.222;2022-07-01T02:11:40;1.60;;;0.90;;
6485;SDS011;3276;48.490;9.222;2022-07-01T02:14:06;2.80;;;1.00;;
6485;SDS011;3276;48.490;9.222;2022-07-01T02:16:31;3.07;;;1.63;;
6485;SDS011;3276;48.490;9.222;2022-07-01T02:18:57;2.73;;;0.77;;
6485;SDS011;3276;48.490;9.222;2022-07-01T02:21:22;2.07;;;0.90;;
6485;SDS011;3276;48.490;9.222;2022-07-01T02:23:48;1.70;;;0.83;;
6485;SDS011;3276;48.490;9.222;2022-07-01T02:26:13;1.60;;;1.03;;
6485;SDS011;3276;48.490;9.222;2022-07-01T02:28:39;4.10;;;1.17;;
6485;SDS011;3276;48.490;9.222;2022-07-01T02:31:05;1.70;;;0.90;;
6485;SDS011;3276;48.490;9.222;2022-07-01T02:33:30;4.07;;;1.40;;
6485;SDS011;3276;48.490;9.222;2022-07-01T02:35:56;4.03;;;1.00;;
6485;SDS011;3276;48.490;9.222;2022-07-01T02:38:22;2.07;;;0.80;;
6485;SDS011;3276;48.490;9.222;2022-07-01T02:40:48;1.97;;;1.17;;
6485;SDS011;3276;48.490;9.222;2022-07-01T02:43:13;2.87;;;1.07;;
6485;SDS011;3276;48.490;9.222;2022-07-01T02:45:41;1.63;;;0.97;;
6485;SDS011;3276;48.490;9.222;2022-07-01T02:48:06;1.80;;;0.80;;
6485;SDS011;3276;48.490;9.222;2022-07-01T02:50:32;1.90;;;0.70;;
6485;SDS011;3276;48.490;9.222;2022-07-01T02:52:58;1.83;;;1.20;;
6485;SDS011;3276;48.490;9.222;2022-07-01T02:55:23;3.63;;;0.97;;
6485;SDS011;3276;48.490;9.222;2022-07-01T02:57:49;1.40;;;0.70;;
6485;SDS011;3276;48.490;9.222;2022-07-01T03:00:16;1.53;;;0.60;;
6485;SDS011;3276;48.490;9.222;2022-07-01T03:02:42;1.50;;;0.70;;
6485;SDS011;3276;48.490;9.222;2022-07-01T03:05:08;1.80;;;1.10;;
6485;SDS011;3276;48.490;9.222;2022-07-01T03:07:35;1.40;;;0.80;;
6485;SDS011;3276;48.490;9.222;2022-07-01T03:10:02;1.70;;;0.73;;
6485;SDS011;3276;48.490;9.222;2022-07-01T03:12:28;2.57;;;0.70;;
6485;SDS011;3276;48.490;9.222;2022-07-01T03:14:54;1.67;;;0.87;;
6485;SDS011;3276;48.490;9.222;2022-07-01T03:17:24;1.83;;;0.80;;
6485;SDS011;3276;48.490;9.222;2022-07-01T03:19:51;1.70;;;1.20;;
6485;SDS011;3276;48.490;9.222;2022-07-01T03:22:18;1.73;;;1.20;;
6485;SDS011;3276;48.490;9.222;2022-07-01T03:24:45;2.20;;;1.20;;
6485;SDS011;3276;48.490;9.222;2022-07-01T03:27:11;1.70;;;1.10;;
6485;SDS011;3276;48.490;9.222;2022-07-01T03:29:36;1.80;;;1.13;;
6485;SDS011;3276;48.490;9.222;2022-07-01T03:32:02;1.83;;;0.93;;
6485;SDS011;3276;48.490;9.222;2022-07-01T03:34:28;1.60;;;0.70;;
6485;SDS011;3276;48.490;9.222;2022-07-01T03:36:53;2.80;;;1.17;;
6485;SDS011;3276;48.490;9.222;2022-07-01T03:39:19;1.97;;;1.27;;
6485;SDS011;3276;48.490;9.222;2022-07-01T03:41:44;5.83;;;1.13;;
6485;SDS011;3276;48.490;9.222;2022-07-01T03:44:10;2.50;;;0.80;;
6485;SDS011;3276;48.490;9.222;2022-07-01T03:46:36;1.50;;;0.90;;
6485;SDS011;3276;48.490;9.222;2022-07-01T03:49:02;2.23;;;1.07;;
6485;SDS011;3276;48.490;9.222;2022-07-01T03:51:29;2.53;;;1.00;;
6485;SDS011;3276;48.490;9.222;2022-07-01T03:53:54;2.30;;;1.00;;
6485;SDS011;3276;48.490;9.222;2022-07-01T03:56:38;3.37;;;1.40;;
6485;SDS011;3276;48.490;9.222;2022-07-01T03:59:04;1.53;;;0.90;;
6485;SDS011;3276;48.490;9.222;2022-07-01T04:01:29;5.40;;;1.40;;
6485;SDS011;3276;48.490;9.222;2022-07-01T04:03:55;1.90;;;1.10;;
6485;SDS011;3276;48.490;9.222;2022-07-01T04:06:21;1.77;;;0.90;;
6485;SDS011;3276;48.490;9.222;2022-07-01T04:08:47;1.20;;;0.60;;
6485;SDS011;3276;48.490;9.222;2022-07-01T04:11:14;1.67;;;0.70;;
6485;SDS011;3276;48.490;9.222;2022-07-01T04:13:40;2.53;;;1.10;;
6485;SDS011;3276;48.490;9.222;2022-07-01T04:16:06;1.70;;;1.00;;
6485;SDS011;3276;48.490;9.222;2022-07-01T04:18:32;1.87;;;0.90;;
6485;SDS011;3276;48.490;9.222;2022-07-01T04:20:58;1.70;;;1.13;;
6485;SDS011;3276;48.490;9.222;2022-07-01T04:23:42;1.90;;;1.10;;
6485;SDS011;3276;48.490;9.222;2022-07-01T04:26:08;2.00;;;1.00;;
6485;SDS011;3276;48.490;9.222;2022-07-01T04:28:34;2.27;;;1.00;;
6485;SDS011;3276;48.490;9.222;2022-07-01T04:31:00;1.80;;;1.03;;
6485;SDS011;3276;48.490;9.222;2022-07-01T04:33:25;1.70;;;1.13;;
6485;SDS011;3276;48.490;9.222;2022-07-01T04:35:51;1.70;;;1.03;;
6485;SDS011;3276;48.490;9.222;2022-07-01T04:38:17;1.63;;;0.93;;
6485;SDS011;3276;48.490;9.222;2022-07-01T04:40:43;1.97;;;1.23;;
6485;SDS011;3276;48.490;9.222;2022-07-01T04:43:28;2.63;;;1.10;;
6485;SDS011;3276;48.490;9.222;2022-07-01T04:45:54;2.97;;;0.90;;
6485;SDS011;3276;48.490;9.222;2022-07-01T04:48:20;1.70;;;0.97;;
6485;SDS011;3276;48.490;9.222;2022-07-01T04:50:46;2.67;;;1.10;;
6485;SDS011;3276;48.490;9.222;2022-07-01T04:53:12;3.30;;;1.13;;
6485;SDS011;3276;48.490;9.222;2022-07-01T04:55:38;2.47;;;1.17;;
6485;SDS011;3276;48.490;9.222;2022-07-01T04:58:03;3.00;;;1.43;;
6485;SDS011;3276;48.490;9.222;2022-07-01T05:00:29;1.90;;;1.30;;
6485;SDS011;3276;48.490;9.222;2022-07-01T05:02:55;1.80;;;0.83;;
6485;SDS011;3276;48.490;9.222;2022-07-01T05:05:21;3.63;;;1.30;;
6485;SDS011;3276;48.490;9.222;2022-07-01T05:07:46;5.13;;;1.40;;
6485;SDS011;3276;48.490;9.222;2022-07-01T05:10:12;1.43;;;0.77;;
6485;SDS011;3276;48.490;9.222;2022-07-01T05:12:38;3.23;;;1.30;;
6485;SDS011;3276;48.490;9.222;2022-07-01T05:15:04;2.93;;;1.67;;
6485;SDS011;3276;48.490;9.222;2022-07-01T05:17:30;1.83;;;1.00;;
6485;SDS011;3276;48.490;9.222;2022-07-01T05:20:14;1.80;;;0.80;;
6485;SDS011;3276;48.490;9.222;2022-07-01T05:22:58;2.60;;;1.13;;
6485;SDS011;3276;48.490;9.222;2022-07-01T05:25:24;2.03;;;1.43;;
6485;SDS011;3276;48.490;9.222;2022-07-01T05:27:49;2.47;;;1.23;;
6485;SDS011;3276;48.490;9.222;2022-07-01T05:30:15;3.80;;;2.87;;
6485;SDS011;3276;48.490;9.222;2022-07-01T05:32:41;1.43;;;0.77;;
6485;SDS011;3276;48.490;9.222;2022-07-01T05:35:06;4.43;;;1.10;;
6485;SDS011;3276;48.490;9.222;2022-07-01T05:37:32;1.93;;;0.83;;
6485;SDS011;3276;48.490;9.222;2022-07-01T05:39:58;1.73;;;1.20;;
6485;SDS011;3276;48.490;9.222;2022-07-01T05:42:23;1.80;;;0.70;;
6485;SDS011;3276;48.490;9.222;2022-07-01T05:44:49;2.67;;;0.80;;
6485;SDS011;3276;48.490;9.222;2022-07-01T05:47:14;1.60;;;0.80;;
6485;SDS011;3276;48.490;9.222;2022-07-01T05:49:40;4.67;;;1.20;;
6485;SDS011;3276;48.490;9.222;2022-07-01T05:52:05;1.30;;;0.80;;
6485;SDS011;3276;48.490;9.222;2022-07-01T05:54:31;2.07;;;0.93;;
6485;SDS011;3276;48.490;9.222;2022-07-01T05:56:57;1.70;;;0.80;;
6485;SDS011;3276;48.490;9.222;2022-07-01T05:59:22;1.43;;;0.70;;
6485;SDS011;3276;48.490;9.222;2022-07-01T06:01:48;2.17;;;1.10;;
6485;SDS011;3276;48.490;9.222;2022-07-01T06:04:15;2.33;;;0.83;;
6485;SDS011;3276;48.490;9.222;2022-07-01T06:06:41;2.17;;;1.23;;
6485;SDS011;3276;48.490;9.222;2022-07-01T06:09:07;2.30;;;1.03;;
6485;SDS011;3276;48.490;9.222;2022-07-01T06:11:33;1.70;;;0.80;;
6485;SDS011;3276;48.490;9.222;2022-07-01T06:13:59;1.40;;;0.70;;
6485;SDS011;3276;48.490;9.222;2022-07-01T06:16:24;1.80;;;0.80;;
6485;SDS011;3276;48.490;9.222;2022-07-01T06:18:50;3.13;;;1.53;;
6485;SDS011;3276;48.490;9.222;2022-07-01T06:21:15;2.00;;;1.33;;
6485;SDS011;3276;48.490;9.222;2022-07-01T06:23:42;1.50;;;0.90;;
6485;SDS011;3276;48.490;9.222;2022-07-01T06:26:07;1.40;;;0.80;;
6485;SDS011;3276;48.490;9.222;2022-07-01T06:28:33;1.40;;;0.73;;
6485;SDS011;3276;48.490;9.222;2022-07-01T06:30:58;1.70;;;0.83;;
6485;SDS011;3276;48.490;9.222;2022-07-01T06:33:24;1.50;;;0.90;;
6485;SDS011;3276;48.490;9.222;2022-07-01T06:35:52;3.60;;;0.83;;
6485;SDS011;3276;48.490;9.222;2022-07-01T06:38:17;1.57;;;0.90;;
6485;SDS011;3276;48.490;9.222;2022-07-01T06:40:43;1.40;;;0.80;;
6485;SDS011;3276;48.490;9.222;2022-07-01T06:43:28;2.33;;;1.67;;
6485;SDS011;3276;48.490;9.222;2022-07-01T06:45:54;2.70;;;0.97;;
6485;SDS011;3276;48.490;9.222;2022-07-01T06:48:19;1.73;;;0.97;;
6485;SDS011;3276;48.490;9.222;2022-07-01T06:50:45;4.13;;;2.70;;
6485;SDS011;3276;48.490;9.222;2022-07-01T06:53:10;2.07;;;1.70;;
6485;SDS011;3276;48.490;9.222;2022-07-01T06:55:36;1.57;;;1.17;;
6485;SDS011;3276;48.490;9.222;2022-07-01T06:58:01;4.43;;;1.70;;
6485;SDS011;3276;48.490;9.222;2022-07-01T07:00:29;1.50;;;0.70;;
6485;SDS011;3276;48.490;9.222;2022-07-01T07:02:54;1.50;;;0.90;;
6485;SDS011;3276;48.490;9.222;2022-07-01T07:05:22;1.50;;;0.87;;
6485;SDS011;3276;48.490;9.222;2022-07-01T07:07:47;5.40;;;1.97;;
6485;SDS011;3276;48.490;9.222;2022-07-01T07:10:13;2.17;;;1.10;;
6485;SDS011;3276;48.490;9.222;2022-07-01T07:12:38;2.20;;;1.17;;
6485;SDS011;3276;48.490;9.222;2022-07-01T07:15:04;1.97;;;1.07;;
6485;SDS011;3276;48.490;9.222;2022-07-01T07:17:30;1.93;;;1.10;;
6485;SDS011;3276;48.490;9.222;2022-07-01T07:19:56;1.60;;;0.93;;
6485;SDS011;3276;48.490;9.222;2022-07-01T07:22:22;1.47;;;0.80;;
6485;SDS011;3276;48.490;9.222;2022-07-01T07:24:48;10.50;;;2.10;;
6485;SDS011;3276;48.490;9.222;2022-07-01T07:27:14;4.40;;;1.93;;
6485;SDS011;3276;48.490;9.222;2022-07-01T07:29:39;2.70;;;1.50;;
6485;SDS011;3276;48.490;9.222;2022-07-01T07:32:05;2.00;;;1.13;;
6485;SDS011;3276;48.490;9.222;2022-07-01T07:34:31;2.03;;;0.70;;
6485;SDS011;3276;48.490;9.222;2022-07-01T07:36:56;1.87;;;0.90;;
6485;SDS011;3276;48.490;9.222;2022-07-01T07:39:22;2.90;;;1.33;;
6485;SDS011;3276;48.490;9.222;2022-07-01T07:41:47;2.80;;;1.63;;
6485;SDS011;3276;48.490;9.222;2022-07-01T07:44:14;1.57;;;0.93;;
6485;SDS011;3276;48.490;9.222;2022-07-01T07:46:40;1.40;;;0.70;;
6485;SDS011;3276;48.490;9.222;2022-07-01T07:49:05;1.50;;;0.70;;
6485;SDS011;3276;48.490;9.222;2022-07-01T07:51:31;2.00;;;1.00;;
6485;SDS011;3276;48.490;9.222;2022-07-01T07:53:59;2.80;;;1.43;;
6485;SDS011;3276;48.490;9.222;2022-07-01T07:56:27;2.70;;;0.90;;
6485;SDS011;3276;48.490;9.222;2022-07-01T07:58:53;1.60;;;0.60;;
6485;SDS011;3276;48.490;9.222;2022-07-01T08:01:18;1.63;;;0.60;;
6485;SDS011;3276;48.490;9.222;2022-07-01T08:03:44;2.97;;;1.10;;
6485;SDS011;3276;48.490;9.222;2022-07-01T08:06:10;3.20;;;1.00;;
6485;SDS011;3276;48.490;9.222;2022-07-01T08:08:36;1.50;;;0.60;;
6485;SDS011;3276;48.490;9.222;2022-07-01T08:11:04;1.40;;;0.73;;
6485;SDS011;3276;48.490;9.222;2022-07-01T08:13:30;1.50;;;0.60;;
6485;SDS011;3276;48.490;9.222;2022-07-01T08:15:59;2.20;;;1.50;;
6485;SDS011;3276;48.490;9.222;2022-07-01T08:18:26;2.07;;;0.80;;
6485;SDS011;3276;48.490;9.222;2022-07-01T08:20:52;1.90;;;0.80;;
6485;SDS011;3276;48.490;9.222;2022-07-01T08:23:20;1.40;;;0.80;;
6485;SDS011;3276;48.490;9.222;2022-07-01T08:25:47;2.07;;;0.80;;
6485;SDS011;3276;48.490;9.222;2022-07-01T08:28:14;3.43;;;3.10;;
6485;SDS011;3276;48.490;9.222;2022-07-01T08:30:39;1.40;;;0.87;;
6485;SDS011;3276;48.490;9.222;2022-07-01T08:33:11;1.80;;;1.20;;
6485;SDS011;3276;48.490;9.222;2022-07-01T08:35:37;1.83;;;0.90;;
6485;SDS011;3276;48.490;9.222;2022-07-01T08:38:02;1.50;;;0.80;;
6485;SDS011;3276;48.490;9.222;2022-07-01T08:40:30;4.80;;;1.33;;
6485;SDS011;3276;48.490;9.222;2022-07-01T08:43:00;1.70;;;0.97;;
6485;SDS011;3276;48.490;9.222;2022-07-01T08:45:31;1.70;;;1.03;;
6485;SDS011;3276;48.490;9.222;2022-07-01T08:47:59;2.13;;;1.00;;
6485;SDS011;3276;48.490;9.222;2022-07-01T08:50:29;1.83;;;1.07;;
6485;SDS011;3276;48.490;9.222;2022-07-01T08:52:56;1.50;;;1.03;;
6485;SDS011;3276;48.490;9.222;2022-07-01T08:55:22;2.10;;;1.20;;
6485;SDS011;3276;48.490;9.222;2022-07-01T08:57:48;1.70;;;1.20;;
6485;SDS011;3276;48.490;9.222;2022-07-01T09:00:14;2.00;;;1.60;;
6485;SDS011;3276;48.490;9.222;2022-07-01T09:03:02;1.50;;;0.90;;
6485;SDS011;3276;48.490;9.222;2022-07-01T09:05:28;2.47;;;0.97;;
6485;SDS011;3276;48.490;9.222;2022-07-01T09:08:03;3.40;;;1.30;;
6485;SDS011;3276;48.490;9.222;2022-07-01T09:10:30;1.90;;;1.00;;
6485;SDS011;3276;48.490;9.222;2022-07-01T09:13:03;1.80;;;1.23;;
6485;SDS011;3276;48.490;9.222;2022-07-01T09:15:33;4.83;;;1.60;;
6485;SDS011;3276;48.490;9.222;2022-07-01T09:18:13;1.77;;;1.20;;
6485;SDS011;3276;48.490;9.222;2022-07-01T09:20:40;4.13;;;1.37;;
6485;SDS011;3276;48.490;9.222;2022-07-01T09:23:09;1.97;;;1.40;;
6485;SDS011;3276;48.490;9.222;2022-07-01T09:25:37;2.50;;;1.80;;
6485;SDS011;3276;48.490;9.222;2022-07-01T09:28:05;2.17;;;1.77;;
6485;SDS011;3276;48.490;9.222;2022-07-01T09:30:32;3.60;;;2.63;;
6485;SDS011;3276;48.490;9.222;2022-07-01T09:33:05;3.37;;;2.00;;
6485;SDS011;3276;48.490;9.222;2022-07-01T09:35:31;1.50;;;1.13;;
6485;SDS011;3276;48.490;9.222;2022-07-01T09:37:57;1.70;;;1.20;;
6485;SDS011;3276;48.490;9.222;2022-07-01T09:40:23;1.73;;;1.30;;
6485;SDS011;3276;48.490;9.222;2022-07-01T09:42:48;1.70;;;1.40;;
6485;SDS011;3276;48.490;9.222;2022-07-01T09:45:15;2.37;;;1.37;;
6485;SDS011;3276;48.490;9.222;2022-07-01T09:47:41;1.80;;;0.90;;
6485;SDS011;3276;48.490;9.222;2022-07-01T09:50:10;2.33;;;1.20;;
6485;SDS011;3276;48.490;9.222;2022-07-01T09:52:36;3.17;;;1.33;;
6485;SDS011;3276;48.490;9.222;2022-07-01T09:55:02;1.77;;;1.10;;
6485;SDS011;3276;48.490;9.222;2022-07-01T09:57:32;1.70;;;1.20;;
6485;SDS011;3276;48.490;9.222;2022-07-01T09:59:58;1.43;;;0.97;;
6485;SDS011;3276;48.490;9.222;2022-07-01T10:02:25;2.73;;;1.10;;
6485;SDS011;3276;48.490;9.222;2022-07-01T10:04:57;1.60;;;1.10;;
6485;SDS011;3276;48.490;9.222;2022-07-01T10:12:57;1.50;;;0.80;;
6485;SDS011;3276;48.490;9.222;2022-07-01T10:15:26;1.80;;;1.10;;
6485;SDS011;3276;48.490;9.222;2022-07-01T10:17:53;6.40;;;1.53;;
6485;SDS011;3276;48.490;9.222;2022-07-01T10:20:21;1.70;;;1.40;;
6485;SDS011;3276;48.490;9.222;2022-07-01T10:22:49;3.07;;;2.87;;
6485;SDS011;3276;48.490;9.222;2022-07-01T10:25:38;2.53;;;2.33;;
6485;SDS011;3276;48.490;9.222;2022-07-01T10:28:23;2.70;;;2.50;;
6485;SDS011;3276;48.490;9.222;2022-07-01T10:36:09;3.60;;;3.40;;
6485;SDS011;3276;48.490;9.222;2022-07-01T10:38:36;3.77;;;3.47;;
6485;SDS011;3276;48.490;9.222;2022-07-01T10:41:37;3.77;;;3.47;;
6485;SDS011;3276;48.490;9.222;2022-07-01T10:44:11;3.90;;;3.67;;
6485;SDS011;3276;48.490;9.222;2022-07-01T10:46:45;3.03;;;2.83;;
6485;SDS011;3276;48.490;9.222;2022-07-01T10:52:05;3.20;;;3.00;;
6485;SDS011;3276;48.490;9.222;2022-07-01T11:05:02;3.37;;;3.17;;
6485;SDS011;3276;48.490;9.222;2022-07-01T11:07:30;4.57;;;4.17;;
6485;SDS011;3276;48.490;9.222;2022-07-01T11:09:58;3.60;;;3.40;;
6485;SDS011;3276;48.490;9.222;2022-07-01T11:12:25;3.77;;;3.57;;
6485;SDS011;3276;48.490;9.222;2022-07-01T11:14:54;4.67;;;4.47;;
6485;SDS011;3276;48.490;9.222;2022-07-01T11:17:22;4.43;;;4.23;;
6485;SDS011;3276;48.490;9.222;2022-07-01T11:19:49;4.90;;;4.50;;
6485;SDS011;3276;48.490;9.222;2022-07-01T11:22:19;4.40;;;4.20;;
6485;SDS011;3276;48.490;9.222;2022-07-01T11:24:46;5.27;;;5.07;;
6485;SDS011;3276;48.490;9.222;2022-07-01T11:27:17;6.17;;;5.87;;
6485;SDS011;3276;48.490;9.222;2022-07-01T11:29:42;6.40;;;6.10;;
6485;SDS011;3276;48.490;9.222;2022-07-01T11:32:08;6.63;;;6.23;;
6485;SDS011;3276;48.490;9.222;2022-07-01T11:34:35;6.67;;;6.37;;
6485;SDS011;3276;48.490;9.222;2022-07-01T11:37:07;7.33;;;7.03;;
6485;SDS011;3276;48.490;9.222;2022-07-01T11:40:06;8.73;;;8.33;;
6485;SDS011;3276;48.490;9.222;2022-07-01T11:42:36;9.20;;;8.70;;
6485;SDS011;3276;48.490;9.222;2022-07-01T11:45:03;9.30;;;8.90;;
6485;SDS011;3276;48.490;9.222;2022-07-01T11:47:29;9.20;;;8.80;;
6485;SDS011;3276;48.490;9.222;2022-07-01T11:49:54;9.40;;;9.00;;
6485;SDS011;3276;48.490;9.222;2022-07-01T11:52:21;13.47;;;12.60;;
6485;SDS011;3276;48.490;9.222;2022-07-01T11:54:49;13.97;;;12.97;;
6485;SDS011;3276;48.490;9.222;2022-07-01T11:57:20;12.53;;;11.83;;
6485;SDS011;3276;48.490;9.222;2022-07-01T11:59:48;14.30;;;13.50;;
6485;SDS011;3276;48.490;9.222;2022-07-01T12:02:15;12.67;;;12.07;;
6485;SDS011;3276;48.490;9.222;2022-07-01T12:04:42;12.27;;;11.77;;
6485;SDS011;3276;48.490;9.222;2022-07-01T12:07:08;11.73;;;11.33;;
6485;SDS011;3276;48.490;9.222;2022-07-01T12:09:35;11.93;;;11.53;;
6485;SDS011;3276;48.490;9.222;2022-07-01T12:12:01;12.93;;;11.70;;
6485;SDS011;3276;48.490;9.222;2022-07-01T12:14:29;12.20;;;11.60;;
6485;SDS011;3276;48.490;9.222;2022-07-01T12:16:59;13.07;;;12.37;;
6485;SDS011;3276;48.490;9.222;2022-07-01T12:22:00;11.60;;;11.20;;
6485;SDS011;3276;48.490;9.222;2022-07-01T12:24:26;12.47;;;11.90;;
6485;SDS011;3276;48.490;9.222;2022-07-01T12:29:24;11.83;;;11.43;;
6485;SDS011;3276;48.490;9.222;2022-07-01T12:37:30;12.70;;;12.20;;
6485;SDS011;3276;48.490;9.222;2022-07-01T12:42:33;13.00;;;12.47;;
6485;SDS011;3276;48.490;9.222;2022-07-01T12:45:05;12.93;;;12.43;;
6485;SDS011;3276;48.490;9.222;2022-07-01T12:47:39;12.63;;;12.13;;
6485;SDS011;3276;48.490;9.222;2022-07-01T12:53:23;12.57;;;12.07;;
6485;SDS011;3276;48.490;9.222;2022-07-01T12:55:47;12.57;;;12.07;;
6485;SDS011;3276;48.490;9.222;2022-07-01T12:58:16;12.57;;;12.17;;
6485;SDS011;3276;48.490;9.222;2022-07-01T13:00:44;12.97;;;12.37;;
6485;SDS011;3276;48.490;9.222;2022-07-01T13:03:11;13.13;;;12.53;;
6485;SDS011;3276;48.490;9.222;2022-07-01T13:05:37;12.20;;;11.70;;
6485;SDS011;3276;48.490;9.222;2022-07-01T13:08:07;11.70;;;11.30;;
6485;SDS011;3276;48.490;9.222;2022-07-01T13:10:34;12.40;;;11.87;;
6485;SDS011;3276;48.490;9.222;2022-07-01T13:13:00;12.00;;;11.50;;
6485;SDS011;3276;48.490;9.222;2022-07-01T13:15:26;11.87;;;11.47;;
6485;SDS011;3276;48.490;9.222;2022-07-01T13:17:52;12.00;;;11.53;;
6485;SDS011;3276;48.490;9.222;2022-07-01T13:20:18;11.83;;;11.37;;
6485;SDS011;3276;48.490;9.222;2022-07-01T13:22:44;12.20;;;11.70;;
6485;SDS011;3276;48.490;9.222;2022-07-01T13:25:10;12.70;;;12.00;;
6485;SDS011;3276;48.490;9.222;2022-07-01T13:27:37;13.17;;;12.57;;
6485;SDS011;3276;48.490;9.222;2022-07-01T13:30:04;13.40;;;12.70;;
6485;SDS011;3276;48.490;9.222;2022-07-01T13:32:30;11.90;;;11.50;;
6485;SDS011;3276;48.490;9.222;2022-07-01T13:34:56;13.60;;;12.90;;
6485;SDS011;3276;48.490;9.222;2022-07-01T13:37:22;11.93;;;11.43;;
6485;SDS011;3276;48.490;9.222;2022-07-01T13:39:47;11.80;;;11.40;;
6485;SDS011;3276;48.490;9.222;2022-07-01T13:42:13;12.33;;;11.93;;
6485;SDS011;3276;48.490;9.222;2022-07-01T13:44:38;11.73;;;11.33;;
6485;SDS011;3276;48.490;9.222;2022-07-01T13:47:04;12.17;;;11.67;;
6485;SDS011;3276;48.490;9.222;2022-07-01T13:49:34;11.70;;;11.30;;
6485;SDS011;3276;48.490;9.222;2022-07-01T13:52:03;12.20;;;11.70;;
6485;SDS011;3276;48.490;9.222;2022-07-01T13:54:29;11.70;;;11.30;;
6485;SDS011;3276;48.490;9.222;2022-07-01T13:56:55;11.80;;;11.30;;
6485;SDS011;3276;48.490;9.222;2022-07-01T13:59:20;11.70;;;11.20;;
6485;SDS011;3276;48.490;9.222;2022-07-01T14:01:46;12.67;;;12.23;;
6485;SDS011;3276;48.490;9.222;2022-07-01T14:04:12;12.40;;;12.00;;
6485;SDS011;3276;48.490;9.222;2022-07-01T14:06:38;14.03;;;12.93;;
6485;SDS011;3276;48.490;9.222;2022-07-01T14:09:03;12.37;;;11.87;;
6485;SDS011;3276;48.490;9.222;2022-07-01T14:11:29;11.70;;;11.30;;
6485;SDS011;3276;48.490;9.222;2022-07-01T14:13:55;11.30;;;10.90;;
6485;SDS011;3276;48.490;9.222;2022-07-01T14:16:20;11.90;;;11.40;;
6485;SDS011;3276;48.490;9.222;2022-07-01T14:18:46;11.97;;;10.80;;
6485;SDS011;3276;48.490;9.222;2022-07-01T14:21:11;11.70;;;10.87;;
6485;SDS011;3276;48.490;9.222;2022-07-01T14:23:37;10.80;;;10.40;;
6485;SDS011;3276;48.490;9.222;2022-07-01T14:26:03;11.20;;;10.60;;
6485;SDS011;3276;48.490;9.222;2022-07-01T14:28:28;10.60;;;10.20;;
6485;SDS011;3276;48.490;9.222;2022-07-01T14:30:54;10.60;;;10.10;;
6485;SDS011;3276;48.490;9.222;2022-07-01T14:33:20;11.10;;;10.70;;
6485;SDS011;3276;48.490;9.222;2022-07-01T14:35:46;11.73;;;11.30;;
6485;SDS011;3276;48.490;9.222;2022-07-01T14:38:12;10.70;;;10.30;;
6485;SDS011;3276;48.490;9.222;2022-07-01T14:40:39;11.20;;;10.80;;
6485;SDS011;3276;48.490;9.222;2022-07-01T14:43:05;12.07;;;11.43;;
6485;SDS011;3276;48.490;9.222;2022-07-01T14:45:31;12.80;;;11.80;;
6485;SDS011;3276;48.490;9.222;2022-07-01T14:47:57;11.47;;;10.87;;
6485;SDS011;3276;48.490;9.222;2022-07-01T14:50:22;11.80;;;11.37;;
6485;SDS011;3276;48.490;9.222;2022-07-01T14:52:48;11.80;;;11.40;;
6485;SDS011;3276;48.490;9.222;2022-07-01T14:55:14;12.40;;;11.70;;
6485;SDS011;3276;48.490;9.222;2022-07-01T14:57:40;11.50;;;11.10;;
6485;SDS011;3276;48.490;9.222;2022-07-01T15:00:06;11.53;;;11.10;;
6485;SDS011;3276;48.490;9.222;2022-07-01T15:02:32;11.13;;;10.70;;
6485;SDS011;3276;48.490;9.222;2022-07-01T15:04:58;11.00;;;10.60;;
6485;SDS011;3276;48.490;9.222;2022-07-01T15:07:24;10.37;;;9.97;;
6485;SDS011;3276;48.490;9.222;2022-07-01T15:09:49;10.70;;;9.90;;
6485;SDS011;3276;48.490;9.222;2022-07-01T15:12:16;9.80;;;9.40;;
6485;SDS011;3276;48.490;9.222;2022-07-01T15:14:43;9.77;;;9.37;;
6485;SDS011;3276;48.490;9.222;2022-07-01T15:17:09;10.03;;;9.63;;
6485;SDS011;3276;48.490;9.222;2022-07-01T15:19:35;10.03;;;9.63;;
6485;SDS011;3276;48.490;9.222;2022-07-01T15:22:05;9.97;;;9.57;;
6485;SDS011;3276;48.490;9.222;2022-07-01T15:24:33;10.20;;;9.70;;
6485;SDS011;3276;48.490;9.222;2022-07-01T15:26:59;10.13;;;9.67;;
6485;SDS011;3276;48.490;9.222;2022-07-01T15:29:26;10.83;;;10.33;;
6485;SDS011;3276;48.490;9.222;2022-07-01T15:31:54;10.40;;;10.00;;
6485;SDS011;3276;48.490;9.222;2022-07-01T15:34:20;10.27;;;9.87;;
6485;SDS011;3276;48.490;9.222;2022-07-01T15:36:46;9.83;;;9.43;;
6485;SDS011;3276;48.490;9.222;2022-07-01T15:39:12;10.30;;;9.90;;
6485;SDS011;3276;48.490;9.222;2022-07-01T15:41:38;11.00;;;10.60;;
6485;SDS011;3276;48.490;9.222;2022-07-01T15:44:05;10.70;;;10.30;;
6485;SDS011;3276;48.490;9.222;2022-07-01T15:46:31;10.70;;;10.30;;
6485;SDS011;3276;48.490;9.222;2022-07-01T15:48:57;11.27;;;10.77;;